X  Zatvori METAR podaci zračne luke     LDPL Pula Airport
Temperatura
63°F Temperatura
59°F Točka rosišta
88% Vlaga



Vjetar
5 MPS
8 KM/S
2 M/S
4 Čvorovi



Tišina
S
Trenutna situacija

Djelimično oblačno Djelimično oblačno
Tlak zraka 1000.92 (hPa) - 29.56 (inHg)
Vidljivost 6.2 (milje) - 10 (km)
Zračna luka
Kôd zračne luke LDPL

Lokacija: Pula Airport
Udaljenost: 39 (mi)

Metar:
LDPL 291700Z VRB04KT 9999 FEW055 17/15 Q1001 TEMPO RA

Vrijeme: 29-09-2022 19:00 CEST